Refuge, Texas
Current Conditions -  °F | °C
As of 11:55 AM on Friday 31 Oct 2014 (Local Time) from KDKR Reporting Station
Clear Clear  
Wind Chill: 22°   Ceiling: Unl
Heat Index: 22°   Visibility: 10mi
Dew Point:   Wind: 7mph
Humidity: 41%   Direction: 350°N
Pressure: 30.27"   Gusts: 18mph
Location:  31.4982°N, 95.4177°W
Report Text: KDKR 311655Z AUTO 35006G16KT 040V010 10SM CLR 22/08 A3027 RMK AO2
Loading
Personal Weather Stations






























Interactive Weather Map
Tropical Storm Tracking
New forecast layout! Learn more

10-Day Weather Forecast

Advertisements
Track Severe Weather on mobile